createdAt,value
2019-03-27T00:02:45.886Z,97871.33
2019-03-27T00:06:47.791Z,97867.03
2019-03-27T00:10:49.862Z,97872.45
2019-03-27T00:14:51.773Z,97875.89
2019-03-27T00:18:53.677Z,97876.56
2019-03-27T00:22:55.573Z,97872.77
2019-03-27T00:26:57.555Z,97877.38
2019-03-27T00:30:59.619Z,97870.01
2019-03-27T00:35:01.540Z,97870.00
2019-03-27T00:39:04.391Z,97860.48
2019-03-27T00:43:06.445Z,97861.00
2019-03-27T00:47:08.450Z,97867.22
2019-03-27T00:51:10.356Z,97874.10
2019-03-27T00:55:12.862Z,97868.05
2019-03-27T00:59:33.109Z,97875.27
2019-03-27T01:03:54.271Z,97868.70
2019-03-27T01:08:14.524Z,97869.02
2019-03-27T01:12:16.499Z,97875.26
2019-03-27T01:16:18.398Z,97874.59
2019-03-27T01:20:20.291Z,97869.03
2019-03-27T01:24:22.198Z,97872.62
2019-03-27T01:28:24.084Z,97874.41
2019-03-27T01:32:26.065Z,97875.59
2019-03-27T01:36:28.028Z,97877.53
2019-03-27T01:40:29.931Z,97879.18
2019-03-27T01:44:31.844Z,97879.35
2019-03-27T01:48:52.769Z,97882.80
2019-03-27T01:52:54.676Z,97885.72
2019-03-27T01:56:56.612Z,97885.73
2019-03-27T02:00:58.504Z,97888.50
2019-03-27T02:05:00.429Z,97882.96
2019-03-27T02:09:02.345Z,97883.77
2019-03-27T02:13:05.432Z,97894.57
2019-03-27T02:17:07.369Z,97889.02
2019-03-27T02:21:09.403Z,97892.44
2019-03-27T02:25:11.456Z,97887.69
2019-03-27T02:29:13.339Z,97886.08
2019-03-27T02:33:15.252Z,97881.16
2019-03-27T02:37:17.162Z,97887.19
2019-03-27T02:41:19.074Z,97893.59
2019-03-27T02:45:21.950Z,97892.63
2019-03-27T02:49:23.846Z,97899.50
2019-03-27T02:53:25.811Z,97890.99
2019-03-27T02:57:27.901Z,97893.92
2019-03-27T03:01:29.808Z,97890.33
2019-03-27T03:05:31.746Z,97888.84
2019-03-27T03:09:33.641Z,97882.14
2019-03-27T03:13:35.531Z,97886.38
2019-03-27T03:17:37.434Z,97889.34
2019-03-27T03:21:39.420Z,97887.69
2019-03-27T03:25:41.323Z,97885.09
2019-03-27T03:29:44.138Z,97882.44
2019-03-27T03:33:46.017Z,97889.00
2019-03-27T03:37:47.921Z,97888.02
2019-03-27T03:41:49.894Z,97892.30
2019-03-27T03:45:51.815Z,97898.52
2019-03-27T03:49:53.701Z,97901.12
2019-03-27T03:53:55.732Z,97904.06
2019-03-27T03:57:58.248Z,97906.34
2019-03-27T04:02:03.692Z,97909.30
2019-03-27T04:06:05.607Z,97913.27
2019-03-27T04:10:08.140Z,97914.57
2019-03-27T04:14:10.019Z,97923.26
2019-03-27T04:18:11.927Z,97924.39
2019-03-27T04:22:13.817Z,97931.27
2019-03-27T04:26:15.711Z,97925.70
2019-03-27T04:30:18.860Z,97931.11
2019-03-27T04:34:20.761Z,97936.53
2019-03-27T04:38:22.650Z,97938.32
2019-03-27T04:42:24.561Z,97941.11
2019-03-27T04:46:26.752Z,97944.38
2019-03-27T04:50:29.737Z,97944.38
2019-03-27T04:54:33.260Z,97942.77
2019-03-27T04:58:35.157Z,97942.77
2019-03-27T05:02:37.084Z,97940.14
2019-03-27T05:06:38.963Z,97940.63
2019-03-27T05:10:40.882Z,97948.67
2019-03-27T05:14:44.005Z,97950.13
2019-03-27T05:18:45.934Z,97950.45
2019-03-27T05:22:47.830Z,97954.22
2019-03-27T05:26:49.735Z,97957.83
2019-03-27T05:30:51.733Z,97954.24
2019-03-27T05:34:53.632Z,97957.52
2019-03-27T05:38:55.525Z,97963.41
2019-03-27T05:43:00.921Z,97966.04
2019-03-27T05:47:01.553Z,97973.56
2019-03-27T05:51:03.442Z,97973.41
2019-03-27T05:55:07.121Z,97985.05
2019-03-27T05:59:09.030Z,97993.58
2019-03-27T06:03:10.960Z,97999.62
2019-03-27T06:07:12.873Z,97998.48
2019-03-27T06:11:14.778Z,97993.90
2019-03-27T06:15:16.687Z,97994.23
2019-03-27T06:19:18.582Z,98003.73
2019-03-27T06:23:20.477Z,98009.64
2019-03-27T06:27:41.550Z,98009.31
2019-03-27T06:31:44.318Z,98023.09
2019-03-27T06:35:46.220Z,98017.50
2019-03-27T06:39:48.135Z,98022.77
2019-03-27T06:43:50.043Z,98024.54
2019-03-27T06:47:52.034Z,98026.69
2019-03-27T06:51:53.939Z,98025.69
2019-03-27T06:55:56.674Z,98036.52
2019-03-27T06:59:58.575Z,98044.67
2019-03-27T07:04:10.436Z,98039.76
2019-03-27T07:08:04.857Z,98032.56
2019-03-27T07:12:20.210Z,98031.56
2019-03-27T07:16:10.343Z,98033.78
2019-03-27T07:20:26.833Z,98045.88
2019-03-27T07:24:28.741Z,98046.33
2019-03-27T07:28:30.643Z,98053.03
2019-03-27T07:32:32.569Z,98063.27
2019-03-27T07:36:34.454Z,98060.30
2019-03-27T07:40:39.087Z,98060.92
2019-03-27T07:44:40.973Z,98059.53
2019-03-27T07:48:53.228Z,98067.77
2019-03-27T07:52:46.481Z,98070.64
2019-03-27T07:56:48.371Z,98071.13
2019-03-27T08:00:50.325Z,98074.25
2019-03-27T08:04:52.239Z,98076.92
2019-03-27T08:08:54.136Z,98073.41
2019-03-27T08:12:56.041Z,98072.39
2019-03-27T08:16:57.929Z,98075.56
2019-03-27T08:20:59.824Z,98075.35
2019-03-27T08:25:01.928Z,98077.84
2019-03-27T08:29:03.806Z,98079.59
2019-03-27T08:33:05.715Z,98080.42
2019-03-27T08:37:07.606Z,98089.11
2019-03-27T08:41:09.506Z,98086.57
2019-03-27T08:45:12.312Z,98086.97
2019-03-27T08:49:22.018Z,98092.31
2019-03-27T08:53:17.785Z,98091.06
2019-03-27T08:57:19.664Z,98087.34
2019-03-27T09:01:21.633Z,98099.77
2019-03-27T09:05:23.509Z,98094.78
2019-03-27T09:09:25.483Z,98096.20
2019-03-27T09:13:27.385Z,98095.41
2019-03-27T09:17:29.276Z,98092.00
2019-03-27T09:21:31.179Z,98090.49
2019-03-27T09:25:33.072Z,98092.27
2019-03-27T09:29:34.958Z,98091.44
2019-03-27T09:33:36.862Z,98088.09
2019-03-27T09:37:38.813Z,98083.11
2019-03-27T09:41:40.699Z,98089.61
2019-03-27T09:45:58.827Z,98079.61
2019-03-27T09:50:00.742Z,98086.14
2019-03-27T09:54:03.698Z,98089.22
2019-03-27T09:58:05.773Z,98089.52
2019-03-27T10:02:07.852Z,98101.55
2019-03-27T10:06:09.751Z,98096.14
2019-03-27T10:10:11.942Z,98099.16
2019-03-27T10:14:13.921Z,98105.05
2019-03-27T10:18:15.803Z,98100.34
2019-03-27T10:22:17.810Z,98098.41
2019-03-27T10:26:19.690Z,98099.27
2019-03-27T10:30:21.578Z,98095.34
2019-03-27T10:34:23.461Z,98096.16
2019-03-27T10:38:25.356Z,98097.41
2019-03-27T10:42:27.244Z,98098.80
2019-03-27T10:46:29.118Z,98101.20
2019-03-27T10:50:31.004Z,98101.66
2019-03-27T10:54:32.894Z,98098.32
2019-03-27T10:58:34.869Z,98104.02
2019-03-27T11:02:36.737Z,98103.94
2019-03-27T11:06:46.452Z,98101.95
2019-03-27T11:10:48.347Z,98111.86
2019-03-27T11:14:50.327Z,98112.56
2019-03-27T11:18:52.219Z,98106.56
2019-03-27T11:22:54.148Z,98107.76
2019-03-27T11:26:56.051Z,98106.23
2019-03-27T11:30:58.146Z,98105.42
2019-03-27T11:35:00.350Z,98106.44
2019-03-27T11:39:02.394Z,98110.52
2019-03-27T11:43:06.103Z,98106.97
2019-03-27T11:47:07.991Z,98108.76
2019-03-27T11:51:09.967Z,98111.95
2019-03-27T11:55:12.077Z,98122.53
2019-03-27T11:59:13.964Z,98120.84
2019-03-27T12:03:15.947Z,98107.97
2019-03-27T12:07:17.911Z,98103.72
2019-03-27T12:11:19.804Z,98106.45
2019-03-27T12:15:37.944Z,98108.48
2019-03-27T12:19:39.841Z,98103.20
2019-03-27T12:23:41.788Z,98097.28
2019-03-27T12:27:44.461Z,98092.41
2019-03-27T12:31:46.351Z,98091.44
2019-03-27T12:35:48.539Z,98094.95
2019-03-27T12:39:50.448Z,98087.48
2019-03-27T12:43:52.368Z,98091.34
2019-03-27T12:47:54.352Z,98090.05
2019-03-27T12:51:56.333Z,98084.23
2019-03-27T12:55:58.237Z,98083.02
2019-03-27T13:00:00.281Z,98079.84
2019-03-27T13:04:02.188Z,98071.30
2019-03-27T13:08:04.649Z,98072.39
2019-03-27T13:12:06.540Z,98067.51
2019-03-27T13:16:08.431Z,98074.66
2019-03-27T13:20:10.870Z,98071.09
2019-03-27T13:24:12.844Z,98069.73
2019-03-27T13:28:14.738Z,98059.98
2019-03-27T13:32:29.569Z,98062.88
2019-03-27T13:36:31.558Z,98063.50
2019-03-27T13:40:34.438Z,98055.89
2019-03-27T13:44:37.612Z,98054.89
2019-03-27T13:48:39.634Z,98057.82
2019-03-27T13:52:41.739Z,98061.11
2019-03-27T13:56:44.542Z,98061.60
2019-03-27T14:00:46.449Z,98055.38
2019-03-27T14:04:48.347Z,98056.03
2019-03-27T14:08:50.406Z,98051.58
2019-03-27T14:12:52.306Z,98056.45
2019-03-27T14:16:54.204Z,98057.16
2019-03-27T14:20:58.038Z,98052.78
2019-03-27T14:24:59.936Z,98057.44
2019-03-27T14:29:05.589Z,98051.16
2019-03-27T14:33:07.476Z,98044.90
2019-03-27T14:37:09.387Z,98042.25
2019-03-27T14:41:11.283Z,98038.77
2019-03-27T14:45:13.356Z,98047.94
2019-03-27T14:49:15.263Z,98048.23
2019-03-27T14:53:17.245Z,98051.42
2019-03-27T14:57:19.166Z,98054.06
2019-03-27T15:01:21.148Z,98055.50
2019-03-27T15:05:23.057Z,98053.42
2019-03-27T15:09:25.658Z,98043.75
2019-03-27T15:13:27.622Z,98046.41
2019-03-27T15:17:29.808Z,98042.03
2019-03-27T15:21:31.713Z,98050.27
2019-03-27T15:25:33.657Z,98047.94
2019-03-27T15:29:35.620Z,98048.33
2019-03-27T15:33:38.511Z,98056.05
2019-03-27T15:37:40.410Z,98049.09
2019-03-27T15:41:42.316Z,98058.14
2019-03-27T15:45:44.818Z,98054.00
2019-03-27T15:49:46.719Z,98052.84
2019-03-27T15:53:48.670Z,98049.80
2019-03-27T15:57:50.568Z,98044.91
2019-03-27T16:01:52.451Z,98047.97
2019-03-27T16:05:54.343Z,98041.38
2019-03-27T16:09:56.274Z,98044.22
2019-03-27T16:13:58.174Z,98049.77
2019-03-27T16:18:00.070Z,98048.94
2019-03-27T16:22:03.514Z,98054.19
2019-03-27T16:26:05.473Z,98063.13
2019-03-27T16:30:09.078Z,98067.04
2019-03-27T16:34:11.936Z,98064.74
2019-03-27T16:38:13.831Z,98066.98
2019-03-27T16:42:15.963Z,98074.14
2019-03-27T16:46:17.891Z,98085.63
2019-03-27T16:50:19.792Z,98086.80
2019-03-27T16:54:21.704Z,98090.80
2019-03-27T16:58:23.634Z,98088.78
2019-03-27T17:02:25.554Z,98091.88
2019-03-27T17:06:27.462Z,98102.78
2019-03-27T17:10:29.368Z,98107.77
2019-03-27T17:14:31.351Z,98104.74
2019-03-27T17:18:33.265Z,98113.02
2019-03-27T17:22:35.189Z,98121.05
2019-03-27T17:26:37.097Z,98117.59
2019-03-27T17:30:38.977Z,98128.09
2019-03-27T17:34:40.897Z,98129.22
2019-03-27T17:38:42.814Z,98132.23
2019-03-27T17:42:44.953Z,98131.33
2019-03-27T17:46:49.992Z,98137.63
2019-03-27T17:50:50.450Z,98139.22
2019-03-27T17:54:52.361Z,98146.92
2019-03-27T17:58:54.285Z,98147.39
2019-03-27T18:02:56.201Z,98144.62
2019-03-27T18:06:58.118Z,98153.44
2019-03-27T18:10:59.991Z,98154.48
2019-03-27T18:15:01.991Z,98154.09
2019-03-27T18:19:03.901Z,98146.09
2019-03-27T18:23:06.636Z,98149.66
2019-03-27T18:27:08.541Z,98150.56
2019-03-27T18:31:11.147Z,98152.55
2019-03-27T18:35:13.259Z,98155.29
2019-03-27T18:39:15.149Z,98164.55
2019-03-27T18:43:17.047Z,98166.55
2019-03-27T18:47:18.938Z,98166.41
2019-03-27T18:51:21.471Z,98178.12
2019-03-27T18:55:26.826Z,98189.19
2019-03-27T18:59:26.947Z,98190.72
2019-03-27T19:03:28.845Z,98195.16
2019-03-27T19:07:30.813Z,98196.52
2019-03-27T19:11:34.946Z,98195.39
2019-03-27T19:15:36.819Z,98200.35
2019-03-27T19:19:38.704Z,98202.00
2019-03-27T19:23:41.567Z,98200.50
2019-03-27T19:27:43.449Z,98202.45
2019-03-27T19:31:49.128Z,98201.81
2019-03-27T19:35:52.701Z,98202.45
2019-03-27T19:39:54.610Z,98210.20
2019-03-27T19:43:56.512Z,98212.35
2019-03-27T19:47:58.415Z,98208.41
2019-03-27T19:52:00.294Z,98210.88
2019-03-27T19:56:02.190Z,98212.27
2019-03-27T20:00:07.316Z,98213.12
2019-03-27T20:04:09.212Z,98212.81
2019-03-27T20:08:11.102Z,98218.44
2019-03-27T20:12:12.987Z,98222.81
2019-03-27T20:16:14.880Z,98228.62
2019-03-27T20:20:17.046Z,98230.10
2019-03-27T20:24:18.941Z,98227.80
2019-03-27T20:28:20.834Z,98227.02
2019-03-27T20:32:22.705Z,98237.05
2019-03-27T20:36:24.599Z,98242.14
2019-03-27T20:40:27.775Z,98241.66
2019-03-27T20:44:30.737Z,98242.95
2019-03-27T20:48:32.631Z,98246.77
2019-03-27T20:52:34.507Z,98237.55
2019-03-27T20:56:36.401Z,98237.39
2019-03-27T21:00:38.284Z,98235.41
2019-03-27T21:04:40.172Z,98233.77
2019-03-27T21:08:42.071Z,98241.01
2019-03-27T21:12:45.052Z,98237.73
2019-03-27T21:16:46.973Z,98236.72
2019-03-27T21:20:48.850Z,98238.71
2019-03-27T21:24:50.753Z,98239.68
2019-03-27T21:28:52.655Z,98239.38
2019-03-27T21:32:54.539Z,98245.30
2019-03-27T21:36:57.408Z,98243.82
2019-03-27T21:40:59.298Z,98250.56
2019-03-27T21:45:02.165Z,98249.40
2019-03-27T21:49:05.205Z,98254.81
2019-03-27T21:53:07.150Z,98257.44
2019-03-27T21:57:09.061Z,98253.17
2019-03-27T22:01:11.128Z,98260.75
2019-03-27T22:05:13.087Z,98262.20
2019-03-27T22:09:15.029Z,98260.42
2019-03-27T22:13:16.954Z,98262.87
2019-03-27T22:17:18.819Z,98182.23
2019-03-27T22:21:39.891Z,98260.09
2019-03-27T22:25:55.345Z,98257.62
2019-03-27T22:29:57.363Z,98257.47
2019-03-27T22:34:00.326Z,98264.17
2019-03-27T22:38:02.363Z,98259.41
2019-03-27T22:42:04.322Z,98264.02
2019-03-27T22:46:06.448Z,98266.33
2019-03-27T22:50:08.912Z,98260.58
2019-03-27T22:54:10.969Z,98267.62
2019-03-27T22:58:13.191Z,98263.20
2019-03-27T23:02:15.548Z,98268.28
2019-03-27T23:06:17.434Z,98178.55
2019-03-27T23:10:19.334Z,98266.94
2019-03-27T23:14:21.218Z,98266.14
2019-03-27T23:18:23.148Z,98275.95
2019-03-27T23:22:25.117Z,98271.53
2019-03-27T23:26:27.094Z,98272.19
2019-03-27T23:30:28.978Z,98276.13
2019-03-27T23:34:30.950Z,98267.59
2019-03-27T23:38:32.845Z,98268.91
2019-03-27T23:42:34.901Z,98263.83
2019-03-27T23:46:36.783Z,98260.38
2019-03-27T23:50:38.668Z,98250.53
2019-03-27T23:54:40.548Z,98253.81
2019-03-27T23:58:42.432Z,98255.30
